Time;durP1;ratioP1;P1;durP2;ratioP2;P2;SDS_P1;SDS_P2;PMS_P1;PMS_P2;Temp;Humidity;BMP_temperature;BMP_pressure;BME280_temperature;BME280_humidity;BME280_pressure;Samples;Min_cycle;Max_cycle;Signal;HPM_P1;HPM_P2
2022/03/22 00:00:39;;;;;;;62.62;21.25;;;;;;;-0.45;54.95;101037.97;1718514;83;21015;-83
2022/03/22 00:03:08;;;;;;;54.33;22.27;;;;;;;-0.44;56.06;101037.15;1786066;77;21048;-82
2022/03/22 00:05:38;;;;;;;55.00;20.12;;;;;;;-0.41;57.03;101038.59;1800004;77;21047;-82
2022/03/22 00:08:04;;;;;;;55.20;22.27;;;;;;;-0.39;57.70;101033.56;1785981;77;21193;-77
2022/03/22 00:10:30;;;;;;;60.00;20.48;;;;;;;-0.39;57.84;101039.55;1719378;82;21087;-82
2022/03/22 00:12:57;;;;;;;52.75;23.02;;;;;;;-0.39;58.33;101029.33;1743167;78;21060;-81
2022/03/22 00:15:25;;;;;;;59.63;21.40;;;;;;;-0.38;57.89;101025.95;1734543;81;21059;-82
2022/03/22 00:17:52;;;;;;;62.27;24.95;;;;;;;-0.37;55.32;101030.28;1729418;81;21051;-82
2022/03/22 00:20:18;;;;;;;52.27;20.65;;;;;;;-0.43;56.60;101027.42;1714671;81;21079;-81
2022/03/22 00:22:45;;;;;;;52.90;21.70;;;;;;;-0.48;55.43;101035.24;1761494;82;21014;-83
2022/03/22 00:25:25;;;;;;;56.95;23.60;;;;;;;-0.48;57.62;101038.70;1754248;79;21144;31
2022/03/22 00:27:55;;;;;;;49.85;20.75;;;;;;;-0.48;57.54;101039.98;1689656;83;21053;-83
2022/03/22 00:30:32;;;;;;;54.10;22.35;;;;;;;-0.50;57.16;101041.95;1702000;79;21059;-81
2022/03/22 00:33:03;;;;;;;42.50;18.62;;;;;;;-0.49;58.15;101038.62;1785833;76;21043;-81
2022/03/22 00:35:36;;;;;;;48.45;20.57;;;;;;;-0.53;55.88;101036.70;1734230;78;21063;-81
2022/03/22 00:38:12;;;;;;;56.40;19.42;;;;;;;-0.57;54.13;101033.52;1747975;79;21051;-83
2022/03/22 00:40:40;;;;;;;58.55;20.65;;;;;;;-0.61;57.34;101031.20;1747965;79;21313;-82
2022/03/22 00:43:20;;;;;;;48.10;18.70;;;;;;;-0.61;58.02;101035.91;1701423;80;21111;31
2022/03/22 00:45:48;;;;;;;52.78;18.70;;;;;;;-0.60;57.84;101035.50;1721392;79;21068;-79
2022/03/22 00:48:14;;;;;;;52.30;21.15;;;;;;;-0.63;58.57;101028.56;1709029;80;21163;-80
2022/03/22 00:50:47;;;;;;;45.33;18.37;;;;;;;-0.61;58.51;101033.76;1721502;81;21072;-80
2022/03/22 00:53:15;;;;;;;51.00;20.60;;;;;;;-0.62;59.79;101039.65;1726405;79;21100;-81
2022/03/22 00:55:43;;;;;;;43.65;18.27;;;;;;;-0.66;59.12;101037.37;1718099;82;21036;-81
2022/03/22 00:58:10;;;;;;;43.98;19.12;;;;;;;-0.70;59.02;101040.94;1718323;81;21040;-84
2022/03/22 01:00:41;;;;;;;56.13;19.62;;;;;;;-0.76;58.57;101035.11;1718024;80;21154;31
2022/03/22 01:03:09;;;;;;;46.70;19.23;;;;;;;-0.80;58.33;101035.75;1705681;83;21034;-83
2022/03/22 01:05:37;;;;;;;51.15;19.48;;;;;;;-0.83;59.51;101033.05;1705716;83;21023;-82
2022/03/22 01:08:11;;;;;;;44.88;17.92;;;;;;;-0.89;59.46;101032.34;1690960;83;21249;-83
2022/03/22 01:10:42;;;;;;;53.17;19.80;;;;;;;-0.91;58.47;101033.06;1648789;86;20993;-81
2022/03/22 01:13:11;;;;;;;49.00;18.75;;;;;;;-0.92;59.42;101025.77;1677736;84;21058;-83
2022/03/22 01:15:42;;;;;;;50.60;18.98;;;;;;;-0.95;58.24;101023.48;1743124;79;21039;-81
2022/03/22 01:21:16;;;;;;;41.65;18.82;;;;;;;-0.98;56.33;101030.56;1765039;78;21125;-82
2022/03/22 01:23:43;;;;;;;54.38;20.75;;;;;;;-0.99;59.40;101022.45;1740815;78;20963;-82
2022/03/22 01:26:10;;;;;;;43.83;19.48;;;;;;;-1.01;59.25;101027.46;1737759;80;21031;-82
2022/03/22 01:28:37;;;;;;;50.90;20.95;;;;;;;-0.99;58.87;101027.55;1764542;78;20991;-81
2022/03/22 01:31:04;;;;;;;46.77;18.87;;;;;;;-0.98;58.93;101022.03;1758085;79;21019;-81
2022/03/22 01:33:31;;;;;;;45.95;18.87;;;;;;;-1.01;60.74;101027.46;1761864;81;21012;-81
2022/03/22 01:35:58;;;;;;;49.83;19.27;;;;;;;-1.02;59.22;101033.35;1764129;81;21019;-82
2022/03/22 01:38:25;;;;;;;46.28;19.30;;;;;;;-1.04;59.06;101029.84;1753084;78;21166;-79
2022/03/22 01:40:51;;;;;;;40.40;16.97;;;;;;;-1.05;58.56;101033.20;1767427;79;21539;-81
2022/03/22 01:43:34;;;;;;;54.98;20.45;;;;;;;-1.04;59.10;101025.14;1659090;81;21136;-82
2022/03/22 01:46:02;;;;;;;45.40;18.00;;;;;;;-1.06;58.49;101025.05;1628308;87;21065;-82
2022/03/22 01:48:40;;;;;;;42.10;17.20;;;;;;;-1.09;59.11;101020.21;1699256;80;21166;31
2022/03/22 01:51:09;;;;;;;43.78;18.37;;;;;;;-1.14;59.75;101020.35;1678381;81;21103;-78
2022/03/22 01:56:39;;;;;;;47.27;19.42;;;;;;;-1.24;57.24;101028.78;1765498;78;21329;-81
2022/03/22 01:59:05;;;;;;;53.30;20.50;;;;;;;-1.27;59.79;101023.94;1776647;78;21066;-82
2022/03/22 02:07:45;;;;;;;56.13;19.02;;;;;;;-1.30;61.91;101021.21;1733231;80;21018;31
2022/03/22 02:13:03;;;;;;;57.62;19.82;;;;;;;-1.49;62.67;101024.06;1731899;80;21062;-84
2022/03/22 02:15:31;;;;;;;45.50;18.10;;;;;;;-1.54;61.94;101020.77;1731828;80;21069;-82
2022/03/22 02:17:59;;;;;;;65.83;20.95;;;;;;;-1.59;62.69;101026.91;1732236;80;21026;-83
2022/03/22 02:20:26;;;;;;;57.78;18.52;;;;;;;-1.68;57.62;101031.48;1731993;81;20991;-83
2022/03/22 02:25:42;;;;;;;50.98;18.98;;;;;;;-1.77;61.59;101036.06;1743104;79;21091;-81
2022/03/22 02:28:12;;;;;;;61.02;21.93;;;;;;;-1.77;63.63;101029.33;1740444;82;21008;-83
2022/03/22 02:30:39;;;;;;;49.58;19.48;;;;;;;-1.78;63.07;101019.90;1740637;79;21232;-82
2022/03/22 02:33:06;;;;;;;70.75;20.00;;;;;;;-1.76;63.63;101027.64;1740454;80;21008;-83
2022/03/22 02:35:32;;;;;;;50.10;20.70;;;;;;;-1.77;63.51;101022.95;1740567;80;21000;-81
2022/03/22 02:37:59;;;;;;;57.70;18.82;;;;;;;-1.77;62.98;101032.24;1740516;79;20965;-82
2022/03/22 02:40:27;;;;;;;55.03;20.82;;;;;;;-1.80;62.66;101027.86;1705801;82;21028;-81
2022/03/22 02:42:54;;;;;;;51.70;18.32;;;;;;;-1.83;59.62;101030.23;1705796;84;20992;-82
2022/03/22 02:45:23;;;;;;;84.05;28.17;;;;;;;-1.86;61.17;101024.97;1701102;83;21009;-81
2022/03/22 02:47:50;;;;;;;120.82;52.55;;;;;;;-1.84;63.17;101025.94;1711429;81;21063;-81
2022/03/22 02:50:18;;;;;;;63.52;26.57;;;;;;;-1.81;62.55;101029.91;1737762;80;20960;-81
2022/03/22 02:52:45;;;;;;;45.88;20.35;;;;;;;-1.80;61.61;101029.14;1740909;81;20999;-82
2022/03/22 02:55:12;;;;;;;44.45;17.95;;;;;;;-1.79;63.51;101030.91;1740700;83;21744;-81
2022/03/22 02:57:39;;;;;;;38.75;16.10;;;;;;;-1.79;63.66;101030.91;1728160;83;21051;-82
2022/03/22 03:00:09;;;;;;;49.65;18.62;;;;;;;-1.80;63.34;101027.45;1697606;84;21075;-82
2022/03/22 03:02:45;;;;;;;46.75;16.48;;;;;;;-1.77;63.87;101030.59;1672802;83;21251;-80
2022/03/22 03:05:12;;;;;;;42.48;15.95;;;;;;;-1.74;63.67;101037.53;1731936;82;20992;-79
2022/03/22 03:07:39;;;;;;;41.92;16.15;;;;;;;-1.74;64.90;101023.50;1729010;83;20963;-80
2022/03/22 03:10:07;;;;;;;34.20;14.63;;;;;;;-1.72;63.69;101030.84;1740797;83;21015;-80
2022/03/22 03:12:35;;;;;;;43.17;15.08;;;;;;;-1.71;63.82;101031.30;1740848;81;20999;-79
2022/03/22 03:15:04;;;;;;;32.40;14.45;;;;;;;-1.69;62.97;101030.63;1740772;83;20987;-81
2022/03/22 03:17:31;;;;;;;39.48;15.48;;;;;;;-1.73;63.08;101030.34;1740803;81;20939;-81
2022/03/22 03:19:58;;;;;;;34.58;16.40;;;;;;;-1.72;63.09;101030.84;1740871;80;21007;-81
2022/03/22 03:22:25;;;;;;;34.75;15.25;;;;;;;-1.72;63.57;101026.61;1745137;81;20975;-81
2022/03/22 03:24:52;;;;;;;47.15;15.08;;;;;;;-1.70;65.07;101031.80;1770536;79;21056;-81
2022/03/22 03:27:19;;;;;;;41.77;17.15;;;;;;;-1.71;63.96;101028.75;1757512;80;21004;-82
2022/03/22 03:29:45;;;;;;;43.30;17.77;;;;;;;-1.75;63.37;101030.66;1753075;80;21062;-81
2022/03/22 03:32:12;;;;;;;43.73;17.35;;;;;;;-1.80;64.30;101022.36;1739688;82;20979;-81
2022/03/22 03:34:39;;;;;;;46.45;17.98;;;;;;;-1.80;64.40;101029.14;1704599;84;21016;-81
2022/03/22 03:37:06;;;;;;;34.25;15.80;;;;;;;-1.82;64.94;101032.00;1704648;84;21035;-81
2022/03/22 03:39:34;;;;;;;25.52;12.53;;;;;;;-1.86;64.71;101027.12;1704612;84;21038;-81
2022/03/22 03:42:02;;;;;;;37.30;14.45;;;;;;;-1.93;64.53;101021.59;1704486;84;20995;-81
2022/03/22 03:47:22;;;;;;;32.28;13.28;;;;;;;-2.01;64.40;101031.34;1676520;85;21047;-81
2022/03/22 03:49:54;;;;;;;27.77;12.20;;;;;;;-2.08;63.66;101039.45;1676460;86;21070;-81
2022/03/22 03:52:24;;;;;;;36.38;13.50;;;;;;;-2.15;64.29;101036.06;1686388;84;21052;-81
2022/03/22 03:54:52;;;;;;;41.23;13.58;;;;;;;-2.16;63.65;101040.30;1691812;84;21056;-81
2022/03/22 03:57:20;;;;;;;33.90;13.72;;;;;;;-2.17;63.76;101036.38;1704280;84;21003;-82
2022/03/22 03:59:48;;;;;;;31.02;13.95;;;;;;;-2.20;63.16;101035.81;1731989;82;21024;-81
2022/03/22 04:02:16;;;;;;;32.73;13.90;;;;;;;-2.25;61.32;101038.11;1704856;83;21004;-82
2022/03/22 04:04:44;;;;;;;44.95;14.58;;;;;;;-2.34;66.60;101033.75;1752284;82;21033;-81
2022/03/22 04:07:17;;;;;;;35.45;15.15;;;;;;;-2.38;64.54;101043.28;1751894;82;21251;-82
2022/03/22 04:09:43;;;;;;;53.68;17.57;;;;;;;-2.38;64.68;101039.45;1752285;82;21064;-81
2022/03/22 04:12:10;;;;;;;74.00;22.22;;;;;;;-2.40;65.07;101048.67;1741986;82;21011;-82
2022/03/22 04:14:36;;;;;;;72.10;25.73;;;;;;;-2.42;64.48;101046.44;1704433;84;21087;-84
2022/03/22 04:17:04;;;;;;;64.77;20.82;;;;;;;-2.46;66.90;101050.87;1700502;84;20976;-82
2022/03/22 04:19:31;;;;;;;60.35;19.30;;;;;;;-2.48;64.78;101054.59;1704401;84;21012;-83
2022/03/22 04:21:58;;;;;;;58.33;19.80;;;;;;;-2.52;65.18;101051.78;1678435;84;21020;-83
2022/03/22 04:24:24;;;;;;;57.65;18.55;;;;;;;-2.56;62.93;101051.99;1704229;84;21107;-82
2022/03/22 04:26:51;;;;;;;44.15;18.02;;;;;;;-2.63;65.47;101065.14;1695573;84;20980;-80
2022/03/22 04:34:49;;;;;;;42.05;16.45;;;;;;;-2.74;64.04;101058.55;1710372;84;21040;-83
2022/03/22 04:37:16;;;;;;;38.50;16.60;;;;;;;-2.75;64.11;101055.10;1710522;83;21068;-81
2022/03/22 04:39:45;;;;;;;52.23;17.50;;;;;;;-2.71;66.61;101058.71;1710477;84;21009;-81
2022/03/22 04:42:14;;;;;;;49.20;19.32;;;;;;;-2.67;67.02;101060.25;1706818;83;20965;-83
2022/03/22 04:44:41;;;;;;;40.05;17.57;;;;;;;-2.60;66.70;101061.52;1727910;81;21004;-81
2022/03/22 04:47:08;;;;;;;56.05;19.20;;;;;;;-2.58;65.60;101061.21;1727652;83;21043;-83
2022/03/22 04:49:35;;;;;;;42.25;18.07;;;;;;;-2.53;63.99;101060.20;1727593;83;21055;-82
2022/03/22 04:56:43;;;;;;;43.92;18.17;;;;;;;-2.41;66.54;101072.38;1710262;79;20982;-82
2022/03/22 04:57:26;;;;;;;55.33;21.73;;;;;;;-2.33;66.62;101067.33;1688180;79;21045;-81
2022/03/22 04:59:54;;;;;;;42.40;17.32;;;;;;;-2.30;65.88;101063.70;1710398;79;21014;-82
2022/03/22 05:02:22;;;;;;;50.92;18.17;;;;;;;-2.27;66.33;101066.81;1710423;83;21049;-81
2022/03/22 05:04:48;;;;;;;62.48;24.95;;;;;;;-2.22;67.02;101062.47;1710264;84;21040;-82
2022/03/22 05:07:15;;;;;;;54.48;25.02;;;;;;;-2.16;65.25;101063.63;1699598;83;21007;-82
2022/03/22 05:09:42;;;;;;;57.05;23.80;;;;;;;-2.15;65.32;101061.14;1696782;82;21062;-82
2022/03/22 05:12:13;;;;;;;63.28;20.40;;;;;;;-2.09;66.55;101060.63;1710250;83;20987;-82
2022/03/22 05:14:37;;;;;;;58.15;21.35;;;;;;;-2.04;66.36;101057.55;1722031;78;21023;-82
2022/03/22 05:17:04;;;;;;;79.90;25.70;;;;;;;-1.96;66.46;101060.54;1718468;80;20971;-81
2022/03/22 05:19:30;;;;;;;77.60;21.87;;;;;;;-1.91;65.78;101058.24;1709947;80;21011;-81
2022/03/22 05:21:58;;;;;;;86.05;24.15;;;;;;;-1.84;66.31;101057.41;1716411;79;21198;-82
2022/03/22 05:24:25;;;;;;;86.02;23.83;;;;;;;-1.78;66.22;101060.70;1722871;82;20958;-80
2022/03/22 05:26:53;;;;;;;90.65;25.37;;;;;;;-1.72;65.74;101061.04;1705667;82;21014;-81
2022/03/22 05:29:21;;;;;;;67.78;25.82;;;;;;;-1.69;65.97;101054.84;1700832;82;21072;-81
2022/03/22 05:31:47;;;;;;;80.90;25.88;;;;;;;-1.60;65.71;101058.30;1693815;83;21046;-82
2022/03/22 05:34:14;;;;;;;71.20;25.60;;;;;;;-1.54;65.04;101053.93;1710048;82;21017;-81
2022/03/22 05:36:40;;;;;;;64.03;24.43;;;;;;;-1.46;65.15;101060.33;1720062;82;22219;-80
2022/03/22 05:39:08;;;;;;;72.15;27.90;;;;;;;-1.38;65.02;101062.03;1715591;82;21022;-81
2022/03/22 05:41:34;;;;;;;62.05;24.80;;;;;;;-1.30;64.92;101059.49;1711412;83;21034;-80
2022/03/22 05:44:01;;;;;;;60.95;27.67;;;;;;;-1.24;63.98;101057.27;1693832;83;21098;-81
2022/03/22 05:46:28;;;;;;;74.45;26.00;;;;;;;-1.16;63.20;101067.48;1714836;83;21021;-81
2022/03/22 05:48:56;;;;;;;78.52;27.58;;;;;;;-1.10;64.12;101053.77;1722829;83;21041;-82
2022/03/22 05:51:23;;;;;;;64.45;26.68;;;;;;;-1.01;64.13;101065.76;1702700;82;20938;-81
2022/03/22 05:53:50;;;;;;;70.63;29.10;;;;;;;-0.94;63.85;101066.95;1722778;82;21037;-81
2022/03/22 05:56:17;;;;;;;64.32;25.08;;;;;;;-0.88;63.70;101061.30;1722840;82;21002;-81
2022/03/22 05:58:43;;;;;;;67.42;27.42;;;;;;;-0.85;63.54;101063.61;1722643;83;21045;-82
2022/03/22 06:01:10;;;;;;;61.70;22.50;;;;;;;-0.82;63.54;101070.55;1708805;82;21687;-80
2022/03/22 06:03:37;;;;;;;59.05;24.67;;;;;;;-0.77;61.58;101066.98;1696324;83;21006;-81
2022/03/22 06:06:04;;;;;;;63.87;25.12;;;;;;;-0.76;63.42;101068.72;1722786;83;21088;-81
2022/03/22 06:08:31;;;;;;;63.60;22.80;;;;;;;-0.67;62.72;101073.04;1722556;83;21010;-81
2022/03/22 06:10:57;;;;;;;73.30;27.95;;;;;;;-0.65;62.34;101069.76;1702700;83;21080;-81
2022/03/22 06:13:24;;;;;;;76.80;27.13;;;;;;;-0.65;64.21;101052.28;1722622;82;21013;-80
2022/03/22 06:15:52;;;;;;;62.65;27.85;;;;;;;-0.48;63.12;101072.30;1722522;83;21065;-81
2022/03/22 06:18:18;;;;;;;70.40;25.75;;;;;;;-0.39;62.63;101067.66;1722784;83;21026;-80
2022/03/22 06:20:45;;;;;;;83.82;28.67;;;;;;;-0.30;62.35;101065.95;1722627;82;21052;-82
2022/03/22 06:23:14;;;;;;;73.40;28.90;;;;;;;-0.22;62.96;101064.28;1700729;82;21119;-81
2022/03/22 06:25:41;;;;;;;80.65;31.05;;;;;;;-0.14;62.48;101065.05;1697043;84;21072;-80
2022/03/22 06:28:09;;;;;;;72.55;27.65;;;;;;;-0.07;62.34;101058.17;1697032;83;21046;-81
2022/03/22 06:30:37;;;;;;;81.47;31.10;;;;;;;0.01;61.46;101064.53;1696276;85;21122;-83
2022/03/22 06:33:16;;;;;;;76.02;27.40;;;;;;;0.11;60.47;101061.62;1689646;83;21163;-81
2022/03/22 06:35:47;;;;;;;74.95;29.95;;;;;;;0.17;60.86;101049.53;1696379;85;21878;-81
2022/03/22 06:38:14;;;;;;;67.80;25.72;;;;;;;0.27;60.36;101052.12;1678410;85;20978;-82
2022/03/22 06:40:41;;;;;;;80.75;31.17;;;;;;;0.34;59.63;101056.34;1696920;83;21108;-83
2022/03/22 06:43:11;;;;;;;64.30;27.25;;;;;;;0.40;59.87;101055.76;1684577;84;21029;-81
2022/03/22 06:45:39;;;;;;;73.30;28.92;;;;;;;0.44;59.39;101055.09;1696882;84;21069;-81
2022/03/22 06:48:07;;;;;;;71.50;28.62;;;;;;;0.53;59.67;101056.78;1737824;81;21045;-82
2022/03/22 06:50:35;;;;;;;63.78;23.95;;;;;;;0.65;59.57;101064.16;1751962;82;21004;-83
2022/03/22 06:53:04;;;;;;;73.02;26.77;;;;;;;0.77;59.63;101063.85;1751941;81;21024;-82
2022/03/22 06:58:34;;;;;;;66.75;24.75;;;;;;;1.01;58.64;101055.53;1775981;80;21023;-81
2022/03/22 07:01:01;;;;;;;77.08;30.72;;;;;;;1.15;58.51;101050.62;1789535;80;21063;-86
2022/03/22 07:03:29;;;;;;;85.17;32.17;;;;;;;1.29;58.05;101049.94;1709546;79;21191;-82
2022/03/22 07:05:57;;;;;;;64.42;27.55;;;;;;;1.39;58.54;101051.71;1675550;84;21112;-85
2022/03/22 07:08:24;;;;;;;70.65;28.45;;;;;;;1.52;58.17;101048.39;1702704;84;21046;-84
2022/03/22 07:13:37;;;;;;;76.10;28.15;;;;;;;1.76;57.44;101037.88;1696018;81;21066;-83
2022/03/22 07:16:05;;;;;;;72.75;29.15;;;;;;;1.91;57.34;101038.92;1740597;82;21089;-82
2022/03/22 07:18:33;;;;;;;76.57;28.38;;;;;;;2.05;56.92;101036.92;1759062;79;21018;-88
2022/03/22 07:21:04;;;;;;;67.60;27.77;;;;;;;2.18;56.65;101039.15;1738461;79;21462;-80
2022/03/22 07:23:31;;;;;;;75.10;29.90;;;;;;;2.33;56.13;101041.88;1718602;80;21615;-81
2022/03/22 07:25:58;;;;;;;74.58;30.30;;;;;;;2.44;56.00;101041.00;1706682;84;21039;-81
2022/03/22 07:28:26;;;;;;;76.20;31.73;;;;;;;2.56;55.91;101044.91;1705376;84;21536;-81
2022/03/22 07:30:52;;;;;;;74.92;28.38;;;;;;;2.71;55.40;101038.62;1704971;84;21032;-80
2022/03/22 07:33:19;;;;;;;64.03;28.10;;;;;;;2.85;55.17;101041.30;1711196;84;21039;-79
2022/03/22 07:35:46;;;;;;;63.23;26.27;;;;;;;2.98;55.01;101030.67;1715492;84;21020;-79
2022/03/22 07:38:12;;;;;;;64.77;27.30;;;;;;;3.12;54.38;101028.60;1713434;83;21102;-79
2022/03/22 07:40:39;;;;;;;67.42;27.52;;;;;;;3.25;54.21;101032.89;1676885;84;21036;-80
2022/03/22 07:43:06;;;;;;;73.92;30.30;;;;;;;3.36;51.87;101027.31;1677945;85;21524;-81
2022/03/22 07:54:39;;;;;;;75.32;30.02;;;;;;;3.90;52.36;101021.80;1825000;77;20961;-79
2022/03/22 07:57:07;;;;;;;84.28;29.45;;;;;;;4.05;52.01;101016.29;1825258;77;20959;-82
2022/03/22 07:59:34;;;;;;;71.72;30.10;;;;;;;4.16;52.04;101011.95;1821988;78;20983;-83
2022/03/22 08:02:03;;;;;;;69.90;29.55;;;;;;;4.28;51.18;101012.75;1819497;78;21029;-81
2022/03/22 08:04:29;;;;;;;61.40;26.95;;;;;;;4.43;51.72;101014.91;1814737;78;21016;-84
2022/03/22 08:06:57;;;;;;;65.08;25.23;;;;;;;4.57;51.44;101013.61;1786218;79;20991;-84
2022/03/22 08:09:23;;;;;;;54.70;24.18;;;;;;;4.74;50.95;101010.69;1794428;80;21031;-83
2022/03/22 08:11:50;;;;;;;67.03;25.60;;;;;;;4.89;51.01;101017.55;1792994;80;20984;-85
2022/03/22 08:14:19;;;;;;;61.25;25.68;;;;;;;5.03;50.45;101009.34;1773854;80;21007;-84
2022/03/22 08:16:46;;;;;;;63.73;27.73;;;;;;;5.15;49.62;101009.28;1812935;79;21474;-82
2022/03/22 08:19:17;;;;;;;65.30;26.57;;;;;;;5.30;49.86;101001.08;1798241;79;20979;-82
2022/03/22 08:21:41;;;;;;;52.58;24.00;;;;;;;5.46;49.55;100997.20;1793125;79;20978;-81
2022/03/22 08:24:08;;;;;;;52.23;21.30;;;;;;;5.60;48.80;100993.69;1784265;80;20995;-83
2022/03/22 08:26:35;;;;;;;53.23;20.77;;;;;;;5.72;48.19;100993.99;1797969;78;21003;-83
2022/03/22 08:29:01;;;;;;;42.83;18.62;;;;;;;5.87;47.14;100993.91;1784306;78;21019;-82
2022/03/22 08:31:28;;;;;;;45.75;20.92;;;;;;;6.00;46.66;100994.70;1800139;78;20984;-82
2022/03/22 08:33:56;;;;;;;46.73;20.57;;;;;;;6.14;44.27;100993.31;1794385;78;21003;-82
2022/03/22 08:36:23;;;;;;;49.13;21.68;;;;;;;6.30;46.29;100996.25;1800203;79;21040;-82
2022/03/22 08:38:51;;;;;;;55.90;23.30;;;;;;;6.41;45.72;100981.88;1795635;79;20949;-83
2022/03/22 08:41:18;;;;;;;50.85;22.40;;;;;;;6.53;45.16;100983.86;1791395;80;20968;-81
2022/03/22 08:43:44;;;;;;;54.45;22.13;;;;;;;6.68;46.00;100972.95;1767986;80;21008;-82
2022/03/22 08:46:11;;;;;;;47.17;21.60;;;;;;;6.83;44.74;100972.42;1768058;81;21018;-82
2022/03/22 08:48:38;;;;;;;47.58;21.62;;;;;;;6.99;44.80;100965.84;1731724;81;20999;-79
2022/03/22 08:51:05;;;;;;;41.95;20.62;;;;;;;7.13;45.04;100961.79;1751890;80;20992;-79
2022/03/22 08:53:32;;;;;;;44.67;20.32;;;;;;;7.28;44.88;100960.80;1808534;78;21036;-80
2022/03/22 08:56:03;;;;;;;47.53;20.57;;;;;;;7.44;44.58;100960.64;1787990;78;21003;-80
2022/03/22 08:58:27;;;;;;;44.88;19.23;;;;;;;7.58;45.35;100955.70;1796336;79;20980;-80
2022/03/22 09:00:54;;;;;;;55.15;20.32;;;;;;;7.74;44.62;100946.04;1799222;78;20975;-80
2022/03/22 09:03:22;;;;;;;33.35;14.93;;;;;;;7.88;42.19;100941.08;1793870;79;21531;-80
2022/03/22 09:06:08;;;;;;;41.23;18.27;;;;;;;8.07;44.18;100935.73;1791208;78;21459;-82
2022/03/22 09:08:42;;;;;;;39.90;18.60;;;;;;;8.23;43.49;100931.64;1802868;78;21098;-83
2022/03/22 09:11:09;;;;;;;39.83;15.50;;;;;;;8.42;43.13;100931.95;1792147;78;20971;-83
2022/03/22 09:13:39;;;;;;;34.63;16.57;;;;;;;8.58;43.51;100922.64;1795856;79;20987;-80
2022/03/22 09:16:09;;;;;;;34.33;14.85;;;;;;;8.71;43.17;100920.22;1796486;79;20955;-80
2022/03/22 09:18:35;;;;;;;42.05;15.63;;;;;;;8.84;43.08;100916.46;1801067;78;21022;-80
2022/03/22 09:21:01;;;;;;;36.68;15.30;;;;;;;9.01;42.74;100917.48;1799068;78;20984;-81
2022/03/22 09:23:28;;;;;;;33.18;15.65;;;;;;;9.18;41.30;100911.19;1803955;79;21028;-79
2022/03/22 09:25:55;;;;;;;33.18;14.50;;;;;;;9.31;41.84;100912.16;1815026;78;21276;-81
2022/03/22 09:28:22;;;;;;;33.18;14.30;;;;;;;9.43;41.03;100911.40;1772710;79;21873;-80
2022/03/22 09:30:49;;;;;;;29.40;14.50;;;;;;;9.53;40.93;100905.45;1795987;79;20990;-81
2022/03/22 09:33:15;;;;;;;38.05;17.75;;;;;;;9.64;39.78;100907.69;1792588;79;20988;-80
2022/03/22 09:35:43;;;;;;;35.50;15.08;;;;;;;9.75;40.80;100903.89;1800941;79;21568;-80
2022/03/22 09:38:09;;;;;;;28.00;13.88;;;;;;;9.83;40.12;100896.12;1783216;79;21059;-81
2022/03/22 09:40:36;;;;;;;35.30;14.90;;;;;;;9.91;40.78;100884.08;1791412;78;21067;-82
2022/03/22 09:43:03;;;;;;;26.15;11.90;;;;;;;10.02;39.71;100892.78;1795687;78;20988;-82
2022/03/22 09:45:33;;;;;;;22.27;11.78;;;;;;;10.12;39.45;100885.47;1822656;78;20967;-80
2022/03/22 09:48:00;;;;;;;24.32;11.70;;;;;;;10.23;40.53;100882.95;1780505;78;21043;-79
2022/03/22 09:53:17;;;;;;;27.45;12.30;;;;;;;10.51;39.23;100869.66;1722543;81;21009;-80
2022/03/22 09:55:44;;;;;;;30.20;12.75;;;;;;;10.65;39.69;100864.95;1724162;82;21036;-81
2022/03/22 09:58:11;;;;;;;31.33;13.08;;;;;;;10.78;38.50;100852.83;1747689;81;21070;-82
2022/03/22 10:00:38;;;;;;;24.77;11.22;;;;;;;10.89;38.98;100855.89;1747992;81;21040;-80
2022/03/22 10:03:05;;;;;;;21.52;11.18;;;;;;;10.98;37.73;100852.86;1753989;81;21036;-81
2022/03/22 10:05:32;;;;;;;20.40;10.78;;;;;;;11.10;38.97;100843.76;1758060;81;21500;-86
2022/03/22 10:08:02;;;;;;;51.60;17.50;;;;;;;11.24;37.39;100842.05;1746282;81;21019;-80
2022/03/22 10:10:29;;;;;;;52.30;18.85;;;;;;;11.40;38.43;100836.41;1736821;81;21041;-80
2022/03/22 10:13:04;;;;;;;49.18;16.23;;;;;;;11.53;37.29;100830.73;1760234;80;21011;-84
2022/03/22 10:15:36;;;;;;;41.60;15.45;;;;;;;11.63;38.50;100828.55;1736703;80;21060;-81
2022/03/22 10:18:10;;;;;;;35.85;15.15;;;;;;;11.74;38.18;100826.80;1737075;80;21551;-80
2022/03/22 10:20:41;;;;;;;32.95;11.85;;;;;;;11.87;37.49;100828.92;1761678;80;21032;-79
2022/03/22 10:23:10;;;;;;;19.67;9.33;;;;;;;12.01;36.13;100815.88;1767170;80;21512;-80
2022/03/22 10:25:42;;;;;;;19.95;9.48;;;;;;;12.13;36.82;100811.92;1757324;81;20981;-78
2022/03/22 10:28:09;;;;;;;22.67;9.18;;;;;;;12.33;36.65;100809.66;1756823;80;21508;-80
2022/03/22 10:30:37;;;;;;;21.50;9.15;;;;;;;12.48;35.66;100811.34;1748538;80;21095;-79
2022/03/22 10:33:04;;;;;;;24.52;9.20;;;;;;;12.59;35.60;100807.36;1764398;80;21031;-80
2022/03/22 10:35:35;;;;;;;25.37;10.13;;;;;;;12.70;35.64;100805.11;1761394;81;21109;-80
2022/03/22 10:38:08;;;;;;;26.90;10.38;;;;;;;12.79;35.80;100791.12;1782600;80;21021;-80
2022/03/22 10:40:44;;;;;;;21.23;9.55;;;;;;;12.92;35.13;100779.72;1741446;81;21562;-80
2022/03/22 10:43:15;;;;;;;28.80;10.65;;;;;;;13.10;35.93;100780.45;1764808;80;21505;-80
2022/03/22 10:46:00;;;;;;;34.10;12.90;;;;;;;13.24;33.47;100769.44;1753586;80;20980;-79
2022/03/22 10:48:30;;;;;;;27.15;10.93;;;;;;;13.44;35.54;100767.12;1766276;80;21048;-79
2022/03/22 10:50:59;;;;;;;21.40;10.15;;;;;;;13.64;34.20;100766.45;1747377;81;21108;-80
2022/03/22 10:53:28;;;;;;;18.90;9.25;;;;;;;13.84;35.74;100760.14;1727227;81;21072;-81
2022/03/22 10:56:02;;;;;;;19.95;8.85;;;;;;;14.05;35.47;100758.58;1740149;81;21066;-80
2022/03/22 10:58:31;;;;;;;20.97;10.28;;;;;;;14.22;34.38;100753.55;1747102;81;20986;-81
2022/03/22 11:01:06;;;;;;;24.65;10.20;;;;;;;14.42;34.10;100754.12;1751499;81;21021;-80
2022/03/22 11:03:32;;;;;;;26.75;11.10;;;;;;;14.50;33.56;100752.71;1736653;81;21014;-80
2022/03/22 11:06:04;;;;;;;27.35;11.50;;;;;;;14.56;32.80;100746.53;1747270;82;21001;-79
2022/03/22 11:08:31;;;;;;;22.30;10.58;;;;;;;14.60;32.66;100743.01;1741185;82;21023;-79
2022/03/22 11:10:58;;;;;;;25.27;10.08;;;;;;;14.70;32.87;100736.73;1744348;82;21005;-78
2022/03/22 11:13:25;;;;;;;20.27;9.05;;;;;;;14.84;34.18;100732.17;1744019;82;21193;-79
2022/03/22 11:15:55;;;;;;;16.40;7.65;;;;;;;15.08;32.20;100727.38;1752397;81;21431;-79
2022/03/22 11:18:23;;;;;;;26.15;9.05;;;;;;;15.30;31.61;100717.40;1746707;81;20993;-79
2022/03/22 11:20:59;;;;;;;19.55;9.28;;;;;;;15.51;33.35;100713.48;1749800;81;20985;-79
2022/03/22 11:23:34;;;;;;;28.20;12.80;;;;;;;15.71;32.32;100715.70;1742659;82;21434;-78
2022/03/22 11:26:25;;;;;;;21.05;9.30;;;;;;;15.76;31.74;100711.73;1753783;81;21628;-78
2022/03/22 11:28:51;;;;;;;21.60;8.93;;;;;;;15.97;31.63;100707.78;1729429;81;21053;-80
2022/03/22 11:31:21;;;;;;;18.92;8.53;;;;;;;16.12;31.16;100713.16;1750985;81;20921;-79
2022/03/22 11:36:47;;;;;;;18.20;8.18;;;;;;;16.63;30.17;100686.56;1705596;82;21015;-79
2022/03/22 11:42:15;;;;;;;16.70;8.38;;;;;;;17.22;30.26;100685.50;1739887;82;21014;-80
2022/03/22 11:44:39;;;;;;;21.17;7.92;;;;;;;18.83;31.01;100678.46;1735982;81;21032;-81
2022/03/22 11:47:19;;;;;;;18.30;8.93;;;;;;;19.99;29.99;100671.66;1750721;81;20948;-81
2022/03/22 11:49:57;;;;;;;25.70;9.28;;;;;;;20.92;27.09;100674.08;1743919;82;21035;-80
2022/03/22 11:52:36;;;;;;;16.40;9.38;;;;;;;21.55;25.92;100662.92;1753733;81;21045;-81
2022/03/22 11:55:13;;;;;;;18.05;9.10;;;;;;;21.96;25.47;100660.59;1729452;81;21064;-81
2022/03/22 11:58:08;;;;;;;31.27;12.47;;;;;;;22.59;25.72;100649.61;1736966;81;21029;-82
2022/03/22 12:00:58;;;;;;;15.50;8.33;;;;;;;23.05;24.22;100653.05;1727673;82;21037;-81
2022/03/22 12:03:33;;;;;;;36.10;23.00;;;;;;;23.89;24.46;100655.14;1738058;81;21015;-81
2022/03/22 12:06:17;;;;;;;18.05;8.90;;;;;;;24.59;23.29;100645.43;1743642;81;20977;-83
2022/03/22 12:08:43;;;;;;;17.45;9.55;;;;;;;24.67;19.96;100643.20;1746652;81;21624;-81
2022/03/22 12:11:17;;;;;;;17.70;9.18;;;;;;;24.87;21.64;100636.69;1730932;81;21040;-81